Airfield :
LOGIN :

Register | Disclaimer

   EN    FR    IT 

 










Legend :    VFR   Marginal VFR   IFR   Intensive IFR   Very Intensive IFR
Visi :
Ceiling :
>= 8 km
>= 3000ft
5 to 8 km
1000 to 3000 ft
1500m to 5 km
500 to 1000 ft
800 to 1500m
200 to 500 ft
< 800m
< 200 ft
Symbols :   Thunderstorms  Fog  Heavy snow  Heavy precipitations  Wind > 20 kt
SIGMETs :     Misc.  Thunderstorms  Icing  Turbulence  Mountain Waves  Volcanic Ashes






- Airport Elevation : 289 ft


LFYR - Romorantin Pruniers

CURRENT METAR :
  • 290500Z AUTO 03004KT 280V060 CAVOK 09/04 Q1016

EXPIRED METARs :
  • 290430Z AUTO 03004KT 340V070 CAVOK 09/04 Q1016
  • 290400Z AUTO 02003KT 290V070 CAVOK 09/04 Q1016
  • 290330Z AUTO 03004KT 310V080 CAVOK 10/04 Q1016
  • 290300Z AUTO 03006KT 330V060 CAVOK 10/04 Q1016
  • 290230Z AUTO 03006KT 350V070 CAVOK 11/04 Q1016

Expired Forecast.



MET'MAP, your aeronautical weather chart ! - Copyright ORBIFLY December 2007 - Disclaimer

ORBIFLY MET'MAP TEAM :

Programming & Development : Alexandra Zaïnal
Original concept : Baudouin d'Aumeries
Technical & hardware support : Manuel Goepfert
Assistance : Marc-Olivier Méhu

Contact : metmap@orbifly.com




SOURCES & CREDITS :

   NOAA